This is the latest recevied weather packets stored in our database for station/object CE2LOH-10. If no packets are shown the sender has not sent any weather packets the latest 10 day(s).
| Time | Temp. | Humidity | Pressure | Rain* | Wind** | Luminosity | Snow |
|---|---|---|---|---|---|---|---|
| 1777660683 | 20.56° C | 46% | 997.4 hPa | - | - | - | - |
| 1777658883 | 20.56° C | 47% | 997.5 hPa | - | - | - | - |
| 1777657083 | 19.44° C | 48% | 997.7 hPa | - | - | - | - |
| 1777654382 | 18.89° C | 49% | 998.2 hPa | - | - | - | - |
| 1777653487 | 18.89° C | 51% | 998.4 hPa | - | - | - | - |
| 1777651682 | 17.78° C | 53% | 999 hPa | - | - | - | - |
| 1777649883 | 16.67° C | 53% | 999.5 hPa | - | - | - | - |
| 1777648981 | 16.67° C | 54% | 999.3 hPa | - | - | - | - |
| 1777648081 | 16.11° C | 54% | 999.3 hPa | - | - | - | - |
| 1777647181 | 15.56° C | 54% | 999.3 hPa | - | - | - | - |
| 1777646281 | 15° C | 54% | 999.1 hPa | - | - | - | - |
| 1777645381 | 15° C | 54% | 999.1 hPa | - | - | - | - |
| 1777644481 | 14.44° C | 54% | 999.3 hPa | - | - | - | - |
| 1777643581 | 14.44° C | 54% | 999.3 hPa | - | - | - | - |
| 1777642681 | 14.44° C | 54% | 999.2 hPa | - | - | - | - |
| 1777641780 | 13.89° C | 54% | 999 hPa | - | - | - | - |
| 1777639080 | 13.89° C | 54% | 998.7 hPa | - | - | - | - |
| 1777638180 | 13.89° C | 54% | 998.5 hPa | - | - | - | - |
| 1777637280 | 13.89° C | 53% | 998.5 hPa | - | - | - | - |
| 1777636380 | 13.89° C | 54% | 998.2 hPa | - | - | - | - |
| 1777635479 | 14.44° C | 54% | 998.1 hPa | - | - | - | - |
| 1777634579 | 14.44° C | 54% | 998 hPa | - | - | - | - |
| 1777633679 | 14.44° C | 53% | 997.8 hPa | - | - | - | - |
| 1777632779 | 14.44° C | 54% | 997.7 hPa | - | - | - | - |
| 1777631879 | 14.44° C | 53% | 997.7 hPa | - | - | - | - |
* Rain since midnight (hover to see other rain measurements)
** Current wind speed in m/s (hover to see current wind gust speed)